createdAt,value
2018-07-21T00:01:08.050Z,3.33
2018-07-21T00:03:39.290Z,2.80
2018-07-21T00:06:17.666Z,2.90
2018-07-21T00:08:49.073Z,3.02
2018-07-21T00:11:17.983Z,3.05
2018-07-21T00:13:46.875Z,2.98
2018-07-21T00:16:25.217Z,3.00
2018-07-21T00:18:53.589Z,2.87
2018-07-21T00:21:25.286Z,3.52
2018-07-21T00:23:54.086Z,3.08
2018-07-21T00:26:32.718Z,3.05
2018-07-21T00:29:01.280Z,3.20
2018-07-21T00:31:29.984Z,3.35
2018-07-21T00:33:58.625Z,2.85
2018-07-21T00:36:30.274Z,3.15
2018-07-21T00:39:07.811Z,3.02
2018-07-21T00:41:42.579Z,2.98
2018-07-21T00:44:10.962Z,2.67
2018-07-21T00:46:40.280Z,3.22
2018-07-21T00:49:15.103Z,3.47
2018-07-21T00:51:49.680Z,2.95
2018-07-21T00:54:19.270Z,3.08
2018-07-21T00:56:50.916Z,3.15
2018-07-21T00:59:21.422Z,3.02
2018-07-21T01:01:53.635Z,3.17
2018-07-21T01:04:27.859Z,3.05
2018-07-21T01:06:56.968Z,3.10
2018-07-21T01:09:26.704Z,3.35
2018-07-21T01:11:58.353Z,3.10
2018-07-21T01:14:30.292Z,3.47
2018-07-21T01:16:59.308Z,3.45
2018-07-21T01:19:28.073Z,3.45
2018-07-21T01:21:58.214Z,3.83
2018-07-21T01:24:27.132Z,3.58
2018-07-21T01:26:58.944Z,3.50
2018-07-21T01:29:27.936Z,3.72
2018-07-21T01:31:57.742Z,3.60
2018-07-21T01:34:26.577Z,3.90
2018-07-21T01:37:00.813Z,3.33
2018-07-21T01:39:34.340Z,3.80
2018-07-21T01:42:05.838Z,3.42
2018-07-21T01:44:35.776Z,3.15
2018-07-21T01:47:05.348Z,3.47
2018-07-21T01:49:34.610Z,3.52
2018-07-21T01:52:14.978Z,3.10
2018-07-21T01:54:49.636Z,3.27
2018-07-21T01:57:19.421Z,3.70
2018-07-21T01:59:48.094Z,3.67
2018-07-21T02:02:18.591Z,3.75
2018-07-21T02:04:47.270Z,3.50
2018-07-21T02:07:28.260Z,3.20
2018-07-21T02:09:57.969Z,3.85
2018-07-21T02:12:26.678Z,3.92
2018-07-21T02:14:55.473Z,3.80
2018-07-21T02:17:23.741Z,4.37
2018-07-21T02:19:52.113Z,3.98
2018-07-21T02:22:26.879Z,4.20
2018-07-21T02:24:56.251Z,4.70
2018-07-21T02:27:25.763Z,4.58
2018-07-21T02:29:54.612Z,4.30
2018-07-21T02:32:23.587Z,5.10
2018-07-21T02:34:57.820Z,4.58
2018-07-21T02:37:27.068Z,4.65
2018-07-21T02:39:55.961Z,4.80
2018-07-21T02:42:25.825Z,4.67
2018-07-21T02:44:54.313Z,5.08
2018-07-21T02:47:39.720Z,4.62
2018-07-21T02:50:25.167Z,4.33
2018-07-21T02:52:56.900Z,4.83
2018-07-21T02:55:31.341Z,4.65
2018-07-21T02:58:00.387Z,4.85
2018-07-21T03:00:34.501Z,4.62
2018-07-21T03:03:09.328Z,5.10
2018-07-21T03:05:38.221Z,5.12
2018-07-21T03:08:18.402Z,4.72
2018-07-21T03:11:01.033Z,5.00
2018-07-21T03:13:31.138Z,5.10
2018-07-21T03:15:59.855Z,4.90
2018-07-21T03:18:34.245Z,4.45
2018-07-21T03:21:08.665Z,4.70
2018-07-21T03:23:38.412Z,4.80
2018-07-21T03:26:09.633Z,4.95
2018-07-21T03:28:44.123Z,5.90
2018-07-21T03:31:30.977Z,5.25
2018-07-21T03:33:59.776Z,4.97
2018-07-21T03:36:28.934Z,5.60
2018-07-21T03:38:57.846Z,5.42
2018-07-21T03:41:27.560Z,5.60
2018-07-21T03:43:56.141Z,5.50
2018-07-21T03:46:25.081Z,6.08
2018-07-21T03:48:59.538Z,6.40
2018-07-21T03:51:31.027Z,6.97
2018-07-21T03:54:00.948Z,6.70
2018-07-21T03:59:22.135Z,6.62
2018-07-21T04:02:03.733Z,6.65
2018-07-21T04:04:35.296Z,5.85
2018-07-21T04:07:04.083Z,7.35
2018-07-21T04:09:38.473Z,7.10
2018-07-21T04:12:12.368Z,6.47
2018-07-21T04:14:52.898Z,6.62
2018-07-21T04:17:26.506Z,7.05
2018-07-21T04:20:11.820Z,7.17
2018-07-21T04:22:48.036Z,6.65
2018-07-21T04:25:21.786Z,7.25
2018-07-21T04:30:42.036Z,6.85
2018-07-21T04:33:13.740Z,7.30
2018-07-21T04:35:58.870Z,6.80
2018-07-21T04:38:28.429Z,6.28
2018-07-21T04:41:02.924Z,6.17
2018-07-21T04:43:34.534Z,6.95
2018-07-21T04:46:08.559Z,6.45
2018-07-21T04:48:45.127Z,7.28
2018-07-21T04:51:13.618Z,6.83
2018-07-21T04:53:42.161Z,7.22
2018-07-21T04:56:10.936Z,7.17
2018-07-21T04:58:49.345Z,6.90
2018-07-21T05:01:35.299Z,6.22
2018-07-21T05:04:09.988Z,6.47
2018-07-21T05:06:39.267Z,7.17
2018-07-21T05:09:09.894Z,6.60
2018-07-21T05:11:39.437Z,6.37
2018-07-21T05:14:15.464Z,5.35
2018-07-21T05:16:44.888Z,6.72
2018-07-21T05:19:13.696Z,6.00
2018-07-21T05:21:41.783Z,5.95
2018-07-21T05:24:10.659Z,5.50
2018-07-21T05:26:39.231Z,6.08
2018-07-21T05:29:07.942Z,6.22
2018-07-21T05:31:37.864Z,5.72
2018-07-21T05:34:12.578Z,5.37
2018-07-21T05:36:46.932Z,5.83
2018-07-21T05:39:15.969Z,5.08
2018-07-21T05:41:45.676Z,5.35
2018-07-21T05:44:20.301Z,5.37
2018-07-21T05:46:51.717Z,5.35
2018-07-21T05:49:23.867Z,6.08
2018-07-21T05:51:58.289Z,5.35
2018-07-21T05:54:26.623Z,4.95
2018-07-21T05:57:01.041Z,5.15
2018-07-21T05:59:32.383Z,4.60
2018-07-21T06:02:04.983Z,4.75
2018-07-21T06:04:38.686Z,4.87
2018-07-21T06:07:07.843Z,4.28
2018-07-21T06:09:37.635Z,4.25
2018-07-21T06:12:07.590Z,4.42
2018-07-21T06:14:36.260Z,3.87
2018-07-21T06:17:05.453Z,4.72
2018-07-21T06:19:47.670Z,4.37
2018-07-21T06:22:16.283Z,3.95
2018-07-21T06:24:52.761Z,3.60
2018-07-21T06:27:22.031Z,4.15
2018-07-21T06:29:50.358Z,3.90
2018-07-21T06:32:19.545Z,3.58
2018-07-21T06:35:07.813Z,3.70
2018-07-21T06:37:47.903Z,3.30
2018-07-21T06:40:17.017Z,3.75
2018-07-21T06:42:51.690Z,3.33
2018-07-21T06:45:26.945Z,3.95
2018-07-21T06:47:55.251Z,3.80
2018-07-21T06:50:24.274Z,2.90
2018-07-21T06:52:56.284Z,3.62
2018-07-21T06:55:30.284Z,3.52
2018-07-21T06:58:04.438Z,3.40
2018-07-21T07:00:40.176Z,3.90
2018-07-21T07:03:20.454Z,3.50
2018-07-21T07:05:49.145Z,3.60
2018-07-21T07:08:17.972Z,3.00
2018-07-21T07:10:46.775Z,3.62
2018-07-21T07:13:16.848Z,3.37
2018-07-21T07:15:45.910Z,3.15
2018-07-21T07:18:14.674Z,3.75
2018-07-21T07:20:43.470Z,3.27
2018-07-21T07:23:12.403Z,3.62
2018-07-21T07:25:41.524Z,3.55
2018-07-21T07:28:10.680Z,3.12
2018-07-21T07:30:49.088Z,3.52
2018-07-21T07:33:18.079Z,2.87
2018-07-21T07:35:46.894Z,3.10
2018-07-21T07:38:16.012Z,3.17
2018-07-21T07:40:44.825Z,3.65
2018-07-21T07:43:13.754Z,3.45
2018-07-21T07:45:42.703Z,3.47
2018-07-21T07:48:11.519Z,3.65
2018-07-21T07:50:40.310Z,3.80
2018-07-21T07:53:10.214Z,3.33
2018-07-21T07:55:39.421Z,3.75
2018-07-21T07:58:08.130Z,3.87
2018-07-21T08:00:37.026Z,2.95
2018-07-21T08:03:05.809Z,3.90
2018-07-21T08:05:37.778Z,3.50
2018-07-21T08:08:07.596Z,2.85
2018-07-21T08:10:36.214Z,3.27
2018-07-21T08:13:08.011Z,2.92
2018-07-21T08:15:44.349Z,4.03
2018-07-21T08:18:12.783Z,3.65
2018-07-21T08:20:42.031Z,3.50
2018-07-21T08:23:16.119Z,3.08
2018-07-21T08:25:45.275Z,3.40
2018-07-21T08:28:17.305Z,3.42
2018-07-21T08:30:49.250Z,3.27
2018-07-21T08:33:18.260Z,3.62
2018-07-21T08:35:47.566Z,3.62
2018-07-21T08:38:16.448Z,3.27
2018-07-21T08:40:48.398Z,3.80
2018-07-21T08:43:17.236Z,3.72
2018-07-21T08:45:53.735Z,3.80
2018-07-21T08:48:22.954Z,3.42
2018-07-21T08:50:52.303Z,3.42
2018-07-21T08:53:21.555Z,3.50
2018-07-21T08:55:50.345Z,3.60
2018-07-21T08:58:24.632Z,3.70
2018-07-21T09:00:52.955Z,3.65
2018-07-21T09:03:22.437Z,3.77
2018-07-21T09:05:54.114Z,4.00
2018-07-21T09:08:28.435Z,3.85
2018-07-21T09:10:57.984Z,3.67
2018-07-21T09:13:32.345Z,3.67
2018-07-21T09:16:03.944Z,3.92
2018-07-21T09:18:32.411Z,3.75
2018-07-21T09:21:02.437Z,3.67
2018-07-21T09:23:31.382Z,3.80
2018-07-21T09:26:00.314Z,3.95
2018-07-21T09:28:40.616Z,3.50
2018-07-21T09:31:12.198Z,4.15
2018-07-21T09:33:41.121Z,3.75
2018-07-21T09:36:15.409Z,4.08
2018-07-21T09:38:56.658Z,4.10
2018-07-21T09:41:31.051Z,3.92
2018-07-21T09:43:59.478Z,3.83
2018-07-21T09:46:37.354Z,4.10
2018-07-21T09:49:08.788Z,4.37
2018-07-21T09:51:41.007Z,3.98
2018-07-21T09:54:17.631Z,4.20
2018-07-21T09:56:46.973Z,4.00
2018-07-21T09:59:15.518Z,4.20
2018-07-21T10:01:45.427Z,3.87
2018-07-21T10:04:20.660Z,3.92
2018-07-21T10:06:54.659Z,3.95
2018-07-21T10:09:23.057Z,4.08
2018-07-21T10:11:53.104Z,4.28
2018-07-21T10:14:25.131Z,4.30
2018-07-21T10:16:54.595Z,4.20
2018-07-21T10:19:23.053Z,4.10
2018-07-21T10:21:52.284Z,4.03
2018-07-21T10:24:26.165Z,4.25
2018-07-21T10:27:01.177Z,4.37
2018-07-21T10:29:30.309Z,4.28
2018-07-21T10:32:10.715Z,4.28
2018-07-21T10:34:45.005Z,3.70
2018-07-21T10:37:19.279Z,3.92
2018-07-21T10:39:57.276Z,3.80
2018-07-21T10:42:25.944Z,3.80
2018-07-21T10:44:58.462Z,4.60
2018-07-21T10:47:28.509Z,4.20
2018-07-21T10:50:00.603Z,4.37
2018-07-21T10:52:38.946Z,3.83
2018-07-21T10:55:08.444Z,4.17
2018-07-21T10:57:42.623Z,4.42
2018-07-21T11:00:11.824Z,4.22
2018-07-21T11:02:41.531Z,4.08
2018-07-21T11:05:10.278Z,3.92
2018-07-21T11:07:46.328Z,4.10
2018-07-21T11:10:15.940Z,4.10
2018-07-21T11:12:45.582Z,3.90
2018-07-21T11:15:14.770Z,4.90
2018-07-21T11:17:46.698Z,4.28
2018-07-21T11:20:16.843Z,4.20
2018-07-21T11:22:45.721Z,4.12
2018-07-21T11:25:15.953Z,4.75
2018-07-21T11:27:44.638Z,4.40
2018-07-21T11:30:15.205Z,4.05
2018-07-21T11:32:43.839Z,5.70
2018-07-21T11:35:15.976Z,5.75
2018-07-21T11:37:44.598Z,4.10
2018-07-21T11:40:13.673Z,4.62
2018-07-21T11:42:42.621Z,4.28
2018-07-21T11:45:12.558Z,4.17
2018-07-21T11:47:41.284Z,4.65
2018-07-21T11:50:13.464Z,5.17
2018-07-21T11:52:42.457Z,4.60
2018-07-21T11:55:12.471Z,4.33
2018-07-21T11:57:41.517Z,4.70
2018-07-21T12:00:10.816Z,4.30
2018-07-21T12:02:40.017Z,4.80
2018-07-21T12:05:11.693Z,4.90
2018-07-21T12:07:40.709Z,5.05
2018-07-21T12:10:12.448Z,4.95
2018-07-21T12:12:41.136Z,5.20
2018-07-21T12:15:10.065Z,4.60
2018-07-21T12:17:39.954Z,4.60
2018-07-21T12:20:08.756Z,6.10
2018-07-21T12:22:37.685Z,4.72
2018-07-21T12:25:06.493Z,4.95
2018-07-21T12:27:35.342Z,4.42
2018-07-21T12:30:04.648Z,4.83
2018-07-21T12:32:34.108Z,5.30
2018-07-21T12:35:02.993Z,5.25
2018-07-21T12:37:31.846Z,5.30
2018-07-21T12:40:00.953Z,5.10
2018-07-21T12:42:29.739Z,5.40
2018-07-21T12:45:01.769Z,5.00
2018-07-21T12:47:30.476Z,4.42
2018-07-21T12:49:59.287Z,4.75
2018-07-21T12:52:28.348Z,4.47
2018-07-21T12:54:58.012Z,5.17
2018-07-21T12:57:27.408Z,5.72
2018-07-21T12:59:56.626Z,5.35
2018-07-21T13:02:25.764Z,5.30
2018-07-21T13:04:54.664Z,5.58
2018-07-21T13:07:23.980Z,5.08
2018-07-21T13:09:52.730Z,5.05
2018-07-21T13:12:21.547Z,5.12
2018-07-21T13:14:50.536Z,5.83
2018-07-21T13:17:19.349Z,5.50
2018-07-21T13:19:48.369Z,5.08
2018-07-21T13:22:17.333Z,5.58
2018-07-21T13:24:45.929Z,5.37
2018-07-21T13:27:14.911Z,5.20
2018-07-21T13:29:43.822Z,4.45
2018-07-21T13:32:12.700Z,5.30
2018-07-21T13:34:44.734Z,5.47
2018-07-21T13:37:13.346Z,4.95
2018-07-21T13:39:42.089Z,4.45
2018-07-21T13:42:11.185Z,5.92
2018-07-21T13:44:40.027Z,5.25
2018-07-21T13:47:08.904Z,5.50
2018-07-21T13:49:37.669Z,5.15
2018-07-21T13:52:06.899Z,4.80
2018-07-21T13:54:35.900Z,6.37
2018-07-21T13:57:04.571Z,5.25
2018-07-21T13:59:33.552Z,5.50
2018-07-21T14:02:02.363Z,5.87
2018-07-21T14:04:31.435Z,5.30
2018-07-21T14:06:59.825Z,6.35
2018-07-21T14:09:28.485Z,5.70
2018-07-21T14:11:57.651Z,6.55
2018-07-21T14:14:26.420Z,5.67
2018-07-21T14:16:55.442Z,5.90
2018-07-21T14:19:24.384Z,5.65
2018-07-21T14:21:53.900Z,5.00
2018-07-21T14:24:22.432Z,4.60
2018-07-21T14:26:51.340Z,6.00
2018-07-21T14:29:20.215Z,5.62
2018-07-21T14:31:49.369Z,5.95
2018-07-21T14:34:17.809Z,5.55
2018-07-21T14:36:46.616Z,5.33
2018-07-21T14:39:15.506Z,4.55
2018-07-21T14:41:44.395Z,4.92
2018-07-21T14:44:13.312Z,5.40
2018-07-21T14:46:42.292Z,5.40
2018-07-21T14:49:11.357Z,5.58
2018-07-21T14:51:40.350Z,4.58
2018-07-21T14:54:09.078Z,4.55
2018-07-21T14:56:38.143Z,4.45
2018-07-21T14:59:08.013Z,4.00
2018-07-21T15:01:36.859Z,4.90
2018-07-21T15:04:05.601Z,4.67
2018-07-21T15:06:35.768Z,4.10
2018-07-21T15:09:07.542Z,4.28
2018-07-21T15:11:36.236Z,3.95
2018-07-21T15:14:05.028Z,3.90
2018-07-21T15:16:33.789Z,4.05
2018-07-21T15:19:01.876Z,4.00
2018-07-21T15:21:30.452Z,4.22
2018-07-21T15:23:59.540Z,4.42
2018-07-21T15:26:29.542Z,4.00
2018-07-21T15:28:58.598Z,4.70
2018-07-21T15:31:28.666Z,4.10
2018-07-21T15:34:00.720Z,4.40
2018-07-21T15:36:29.677Z,3.92
2018-07-21T15:38:58.348Z,4.12
2018-07-21T15:41:27.335Z,4.15
2018-07-21T15:43:56.013Z,3.95
2018-07-21T15:46:24.810Z,3.60
2018-07-21T15:48:54.721Z,3.52
2018-07-21T15:51:23.708Z,3.60
2018-07-21T15:53:52.584Z,4.22
2018-07-21T15:56:21.404Z,3.30
2018-07-21T15:58:50.487Z,3.35
2018-07-21T16:01:19.283Z,3.47
2018-07-21T16:03:48.976Z,3.27
2018-07-21T16:06:18.252Z,3.40
2018-07-21T16:08:47.434Z,3.67
2018-07-21T16:11:16.539Z,3.85
2018-07-21T16:13:45.321Z,3.90
2018-07-21T16:16:14.313Z,3.65
2018-07-21T16:18:43.117Z,3.75
2018-07-21T16:21:12.021Z,3.30
2018-07-21T16:23:41.108Z,3.80
2018-07-21T16:26:10.077Z,3.90
2018-07-21T16:28:38.778Z,4.25
2018-07-21T16:31:07.621Z,3.67
2018-07-21T16:33:36.696Z,4.08
2018-07-21T16:36:06.166Z,4.37
2018-07-21T16:38:34.642Z,3.83
2018-07-21T16:41:03.423Z,3.58
2018-07-21T16:43:32.202Z,3.77
2018-07-21T16:46:01.012Z,3.67
2018-07-21T16:48:29.725Z,3.45
2018-07-21T16:50:58.823Z,3.90
2018-07-21T16:53:27.898Z,3.60
2018-07-21T16:55:57.160Z,4.20
2018-07-21T16:58:25.756Z,4.20
2018-07-21T17:00:54.885Z,4.20
2018-07-21T17:03:23.769Z,3.85
2018-07-21T17:05:52.735Z,4.00
2018-07-21T17:08:21.310Z,3.92
2018-07-21T17:10:50.385Z,3.85
2018-07-21T17:13:19.052Z,3.40
2018-07-21T17:15:47.841Z,3.42
2018-07-21T17:18:16.941Z,3.77
2018-07-21T17:20:45.851Z,3.67
2018-07-21T17:23:14.576Z,3.92
2018-07-21T17:25:43.294Z,3.62
2018-07-21T17:28:12.193Z,3.55
2018-07-21T17:30:42.189Z,3.85
2018-07-21T17:33:10.790Z,3.55
2018-07-21T17:35:40.607Z,3.60
2018-07-21T17:38:09.477Z,3.87
2018-07-21T17:40:38.629Z,3.72
2018-07-21T17:43:07.484Z,3.40
2018-07-21T17:45:36.864Z,3.90
2018-07-21T17:48:06.161Z,3.77
2018-07-21T17:50:34.770Z,3.98
2018-07-21T17:53:03.793Z,3.75
2018-07-21T17:55:32.687Z,3.50
2018-07-21T17:58:01.706Z,4.12
2018-07-21T18:00:30.564Z,3.30
2018-07-21T18:02:59.438Z,3.35
2018-07-21T18:05:29.251Z,3.20
2018-07-21T18:07:57.871Z,3.65
2018-07-21T18:10:26.965Z,3.00
2018-07-21T18:12:55.326Z,3.12
2018-07-21T18:15:24.441Z,2.95
2018-07-21T18:17:53.380Z,3.90
2018-07-21T18:20:22.457Z,4.25
2018-07-21T18:22:51.339Z,3.05
2018-07-21T18:25:20.408Z,3.40
2018-07-21T18:27:51.459Z,3.40
2018-07-21T18:30:20.033Z,2.92
2018-07-21T18:32:49.753Z,2.87
2018-07-21T18:35:18.199Z,3.00
2018-07-21T18:37:46.804Z,3.20
2018-07-21T18:40:20.516Z,3.45
2018-07-21T18:42:49.920Z,3.27
2018-07-21T18:45:19.130Z,3.15
2018-07-21T18:47:47.800Z,3.47
2018-07-21T18:50:16.854Z,3.33
2018-07-21T18:52:45.917Z,4.35
2018-07-21T18:55:14.771Z,6.15
2018-07-21T18:57:43.650Z,5.53
2018-07-21T19:00:12.906Z,4.05
2018-07-21T19:02:41.807Z,4.30
2018-07-21T19:05:11.736Z,4.12
2018-07-21T19:07:40.542Z,3.47
2018-07-21T19:10:09.360Z,3.80
2018-07-21T19:12:52.835Z,3.10
2018-07-21T19:15:27.332Z,3.98
2018-07-21T19:17:55.897Z,3.98
2018-07-21T19:20:30.162Z,3.52
2018-07-21T19:23:01.719Z,3.77
2018-07-21T19:25:36.804Z,3.98
2018-07-21T19:28:05.624Z,3.77
2018-07-21T19:30:41.204Z,3.98
2018-07-21T19:33:10.860Z,3.83
2018-07-21T19:35:40.648Z,3.52
2018-07-21T19:38:11.500Z,4.15
2018-07-21T19:40:39.980Z,3.95
2018-07-21T19:43:08.672Z,3.45
2018-07-21T19:45:37.787Z,4.15
2018-07-21T19:48:06.393Z,3.98
2018-07-21T19:50:35.507Z,3.75
2018-07-21T19:53:04.352Z,3.75
2018-07-21T19:55:33.301Z,3.62
2018-07-21T19:58:02.377Z,3.70
2018-07-21T20:00:31.029Z,3.77
2018-07-21T20:02:59.928Z,3.30
2018-07-21T20:05:28.996Z,4.22
2018-07-21T20:07:57.392Z,5.03
2018-07-21T20:10:27.298Z,4.55
2018-07-21T20:12:56.485Z,5.20
2018-07-21T20:15:25.344Z,4.85
2018-07-21T20:17:56.005Z,4.55
2018-07-21T20:20:25.342Z,4.37
2018-07-21T20:22:54.011Z,4.62
2018-07-21T20:25:27.298Z,4.80
2018-07-21T20:27:56.506Z,4.42
2018-07-21T20:30:25.408Z,4.20
2018-07-21T20:32:54.283Z,4.70
2018-07-21T20:35:23.100Z,5.50
2018-07-21T20:37:52.027Z,4.30
2018-07-21T20:40:20.796Z,4.47
2018-07-21T20:42:49.555Z,4.97
2018-07-21T20:45:18.316Z,4.47
2018-07-21T20:47:47.073Z,4.28
2018-07-21T20:50:18.986Z,4.30
2018-07-21T20:52:47.846Z,4.55
2018-07-21T20:55:16.976Z,5.00
2018-07-21T20:57:45.631Z,4.95
2018-07-21T21:00:14.496Z,4.58
2018-07-21T21:02:44.099Z,5.53
2018-07-21T21:05:12.909Z,5.20
2018-07-21T21:07:41.908Z,4.75
2018-07-21T21:10:11.169Z,4.90
2018-07-21T21:12:39.725Z,4.80
2018-07-21T21:15:08.961Z,4.85
2018-07-21T21:20:29.356Z,4.92
2018-07-21T21:22:58.237Z,4.72
2018-07-21T21:25:27.407Z,5.67
2018-07-21T21:27:56.486Z,5.40
2018-07-21T21:30:26.330Z,4.75
2018-07-21T21:32:54.911Z,5.58
2018-07-21T21:35:23.932Z,5.50
2018-07-21T21:37:52.652Z,5.78
2018-07-21T21:40:21.527Z,6.53
2018-07-21T21:42:50.315Z,5.65
2018-07-21T21:45:19.313Z,5.95
2018-07-21T21:47:48.476Z,5.95
2018-07-21T21:50:16.557Z,5.87
2018-07-21T21:52:45.484Z,5.67
2018-07-21T21:55:14.192Z,5.65
2018-07-21T21:57:42.857Z,6.28
2018-07-21T22:00:12.790Z,5.22
2018-07-21T22:02:41.680Z,5.40
2018-07-21T22:05:11.212Z,5.40
2018-07-21T22:07:40.465Z,5.72
2018-07-21T22:10:09.379Z,5.47
2018-07-21T22:12:38.226Z,5.42
2018-07-21T22:15:13.028Z,5.42
2018-07-21T22:17:42.399Z,5.90
2018-07-21T22:20:11.181Z,5.87
2018-07-21T22:22:40.074Z,5.22
2018-07-21T22:25:08.396Z,5.95
2018-07-21T22:27:36.752Z,5.97
2018-07-21T22:30:05.630Z,6.25
2018-07-21T22:32:34.569Z,6.65
2018-07-21T22:35:03.437Z,6.65
2018-07-21T22:37:32.893Z,6.10
2018-07-21T22:40:01.936Z,5.83
2018-07-21T22:42:30.830Z,6.97
2018-07-21T22:45:00.001Z,6.35
2018-07-21T22:47:29.018Z,6.33
2018-07-21T22:49:57.489Z,6.65
2018-07-21T22:52:26.184Z,6.65
2018-07-21T22:54:55.436Z,7.40
2018-07-21T22:57:24.067Z,6.62
2018-07-21T22:59:52.759Z,5.78
2018-07-21T23:02:21.729Z,6.90
2018-07-21T23:04:50.516Z,6.37
2018-07-21T23:07:19.432Z,6.17
2018-07-21T23:09:48.309Z,6.62
2018-07-21T23:12:17.194Z,6.30
2018-07-21T23:14:46.211Z,6.62
2018-07-21T23:17:15.058Z,6.30
2018-07-21T23:19:43.706Z,6.53
2018-07-21T23:22:12.770Z,6.72
2018-07-21T23:24:41.863Z,6.40
2018-07-21T23:27:10.751Z,8.10
2018-07-21T23:29:40.460Z,7.65
2018-07-21T23:32:09.333Z,8.10
2018-07-21T23:34:38.532Z,8.33
2018-07-21T23:37:07.187Z,9.15
2018-07-21T23:39:37.083Z,9.73
2018-07-21T23:42:05.958Z,9.35
2018-07-21T23:44:34.745Z,9.08
2018-07-21T23:47:03.737Z,10.90
2018-07-21T23:49:33.464Z,9.70
2018-07-21T23:52:03.377Z,10.45
2018-07-21T23:54:32.122Z,10.20
2018-07-21T23:57:00.797Z,10.48
2018-07-21T23:59:29.625Z,10.88
